Time;durP1;ratioP1;P1;durP2;ratioP2;P2;SDS_P1;SDS_P2;PMS_P1;PMS_P2;Temp;Humidity;BMP_temperature;BMP_pressure;BME280_temperature;BME280_humidity;BME280_pressure;Samples;Min_cycle;Max_cycle;Signal;HPM_P1;HPM_P2
2023/06/30 00:01:31;;;;;;;;;;;;;;;27.46;54.68;97467.94;5082705;28;19925;-72
2023/06/30 00:03:57;;;;;;;;;;;;;;;27.46;54.68;97478.13;5082592;28;19925;-72
2023/06/30 00:06:24;;;;;;;;;;;;;;;27.30;57.26;97470.19;5092214;28;19939;-72
2023/06/30 00:08:51;;;;;;;;;;;;;;;26.92;57.92;97476.19;5092094;28;19970;-72
2023/06/30 00:11:21;;;;;;;;;;;;;;;26.17;61.80;97475.50;5092230;28;19922;-72
2023/06/30 00:13:47;;;;;;;;;;;;;;;25.79;66.23;97473.06;5084171;28;19924;-73
2023/06/30 00:16:15;;;;;;;;;;;;;;;25.93;64.50;97470.53;5082514;28;19932;-72
2023/06/30 00:18:42;;;;;;;;;;;;;;;26.30;62.83;97467.81;5092033;28;19924;-72
2023/06/30 00:21:09;;;;;;;;;;;;;;;26.45;63.16;97468.72;5091898;28;19987;-72
2023/06/30 00:23:35;;;;;;;;;;;;;;;26.15;68.35;97466.06;5091755;28;19995;-72
2023/06/30 00:26:02;;;;;;;;;;;;;;;25.89;71.71;97464.22;5091694;28;20007;-72
2023/06/30 00:28:28;;;;;;;;;;;;;;;26.18;67.85;97466.09;5091618;28;19932;-72
2023/06/30 00:30:55;;;;;;;;;;;;;;;26.17;69.10;97470.03;5091614;28;19924;-72
2023/06/30 00:33:22;;;;;;;;;;;;;;;26.57;65.95;97468.44;5091530;28;19924;-72
2023/06/30 00:35:49;;;;;;;;;;;;;;;26.75;66.18;97466.63;5091462;28;19979;-72
2023/06/30 00:38:15;;;;;;;;;;;;;;;26.88;65.91;97464.41;5091407;28;19996;-72
2023/06/30 00:40:41;;;;;;;;;;;;;;;26.94;65.24;97465.63;5091384;28;19925;-72
2023/06/30 00:43:08;;;;;;;;;;;;;;;27.00;65.11;97455.88;5091512;28;19924;-72
2023/06/30 00:45:34;;;;;;;;;;;;;;;27.04;64.50;97449.28;5091499;28;19971;-72
2023/06/30 00:48:00;;;;;;;;;;;;;;;27.05;64.53;97461.78;5091679;28;19925;-72
2023/06/30 00:50:28;;;;;;;;;;;;;;;27.08;64.31;97457.53;5091252;28;20015;-72
2023/06/30 00:52:55;;;;;;;;;;;;;;;27.06;64.21;97451.63;5091372;28;19987;-72
2023/06/30 00:55:21;;;;;;;;;;;;;;;27.08;64.02;97447.31;5091389;28;19979;-72
2023/06/30 00:57:48;;;;;;;;;;;;;;;27.09;63.70;97437.16;5091513;28;19955;-72
2023/06/30 01:00:15;;;;;;;;;;;;;;;27.09;63.74;97437.16;5091433;28;19928;-72
2023/06/30 01:02:45;;;;;;;;;;;;;;;27.06;63.96;97435.19;5091207;28;19924;-73
2023/06/30 01:05:14;;;;;;;;;;;;;;;27.11;63.97;97440.31;5091077;28;19924;-72
2023/06/30 01:07:49;;;;;;;;;;;;;;;27.10;63.88;97433.25;5090961;28;19924;-72
2023/06/30 01:10:17;;;;;;;;;;;;;;;27.05;64.17;97442.63;5091050;28;19920;-72
2023/06/30 01:12:45;;;;;;;;;;;;;;;27.06;64.01;97433.22;5082716;28;20456;-72
2023/06/30 01:15:12;;;;;;;;;;;;;;;27.08;63.85;97435.59;5090849;28;19924;-72
2023/06/30 01:17:41;;;;;;;;;;;;;;;27.05;63.52;97430.88;5090822;28;19925;-72
2023/06/30 01:20:11;;;;;;;;;;;;;;;27.07;63.45;97428.53;5086960;28;20373;-72
2023/06/30 01:22:40;;;;;;;;;;;;;;;27.10;62.73;97423.09;5082500;28;19951;-72
2023/06/30 01:25:10;;;;;;;;;;;;;;;27.00;62.98;97423.00;5090833;28;20011;-72
2023/06/30 01:27:37;;;;;;;;;;;;;;;26.70;63.69;97423.97;5090537;28;19931;-72
2023/06/30 01:30:05;;;;;;;;;;;;;;;26.34;65.10;97413.84;5081202;28;19924;-72
2023/06/30 01:32:31;;;;;;;;;;;;;;;26.25;65.37;97410.66;5090727;28;19925;-72
2023/06/30 01:34:58;;;;;;;;;;;;;;;26.23;65.71;97407.50;5090808;28;19925;-72
2023/06/30 01:37:25;;;;;;;;;;;;;;;26.20;66.01;97405.53;5090551;28;19969;-72
2023/06/30 01:39:51;;;;;;;;;;;;;;;26.36;65.39;97406.06;5090620;28;19925;-72
2023/06/30 01:42:19;;;;;;;;;;;;;;;26.47;64.92;97406.16;5090431;28;19963;-72
2023/06/30 01:44:46;;;;;;;;;;;;;;;26.59;64.26;97392.94;5082764;28;19947;-72
2023/06/30 01:47:12;;;;;;;;;;;;;;;26.37;64.69;97390.44;5090580;28;20391;-72
2023/06/30 01:49:39;;;;;;;;;;;;;;;26.48;64.35;97392.09;5090337;28;20386;-72
2023/06/30 01:52:06;;;;;;;;;;;;;;;26.58;64.09;97388.66;5090381;28;19924;-72
2023/06/30 01:54:32;;;;;;;;;;;;;;;26.69;63.90;97403.19;5090737;28;19970;-72
2023/06/30 01:56:58;;;;;;;;;;;;;;;26.72;64.48;97402.44;5090469;28;19924;-72
2023/06/30 01:59:26;;;;;;;;;;;;;;;26.75;65.06;97407.16;5090256;28;19959;-72
2023/06/30 02:01:52;;;;;;;;;;;;;;;26.75;65.74;97409.09;5090312;28;19967;-72
2023/06/30 02:04:19;;;;;;;;;;;;;;;26.68;66.92;97409.84;5090235;28;19955;-72
2023/06/30 02:06:45;;;;;;;;;;;;;;;26.69;68.04;97407.88;5090263;28;19924;-72
2023/06/30 02:09:12;;;;;;;;;;;;;;;26.63;69.75;97406.66;5081736;28;19932;-72
2023/06/30 02:11:38;;;;;;;;;;;;;;;26.71;69.97;97405.53;5089551;28;19928;-72
2023/06/30 02:14:05;;;;;;;;;;;;;;;26.72;71.21;97404.38;5090240;28;19924;-72
2023/06/30 02:16:33;;;;;;;;;;;;;;;26.72;72.54;97398.91;5090070;28;19924;-72
2023/06/30 02:18:59;;;;;;;;;;;;;;;26.72;76.00;97396.16;5093112;28;20014;-73
2023/06/30 02:21:26;;;;;;;;;;;;;;;26.16;83.02;97391.00;5094023;28;19966;-72
2023/06/30 02:23:52;;;;;;;;;;;;;;;25.64;86.97;97394.75;5094411;28;19967;-72
2023/06/30 02:26:18;;;;;;;;;;;;;;;25.83;85.85;97400.06;5094954;28;20317;-72
2023/06/30 02:28:45;;;;;;;;;;;;;;;26.17;86.70;97395.34;5095543;28;19988;-72
2023/06/30 02:31:11;;;;;;;;;;;;;;;26.34;87.29;97391.19;5095197;28;19997;-72
2023/06/30 02:33:39;;;;;;;;;;;;;;;26.42;87.82;97385.38;5094468;28;20015;-72
2023/06/30 02:36:05;;;;;;;;;;;;;;;26.54;87.43;97379.63;5084779;28;20003;-72
2023/06/30 02:38:32;;;;;;;;;;;;;;;26.60;88.29;97380.84;5093927;28;20077;-72
2023/06/30 02:40:58;;;;;;;;;;;;;;;26.65;87.99;97382.41;5093817;28;20011;-72
2023/06/30 02:43:24;;;;;;;;;;;;;;;26.67;87.94;97378.16;5084397;28;19956;-72
2023/06/30 02:45:51;;;;;;;;;;;;;;;26.67;88.66;97380.91;5093780;28;19960;-72
2023/06/30 02:48:17;;;;;;;;;;;;;;;26.59;89.65;97382.00;5093714;28;19992;-71
2023/06/30 02:50:45;;;;;;;;;;;;;;;26.63;89.76;97380.06;5085534;28;19931;-72
2023/06/30 02:53:11;;;;;;;;;;;;;;;26.68;89.11;97379.72;5093567;28;19956;-72
2023/06/30 02:55:38;;;;;;;;;;;;;;;26.60;87.61;97374.56;5083969;28;19994;-72
2023/06/30 02:58:04;;;;;;;;;;;;;;;26.66;88.79;97373.03;5093596;28;19930;-72
2023/06/30 03:00:30;;;;;;;;;;;;;;;26.57;88.62;97367.91;5093411;28;19936;-72
2023/06/30 03:02:57;;;;;;;;;;;;;;;26.50;88.38;97378.78;5093375;28;20011;-72
2023/06/30 03:05:23;;;;;;;;;;;;;;;26.53;87.59;97379.97;5093191;28;19952;-72
2023/06/30 03:07:51;;;;;;;;;;;;;;;26.53;88.13;97383.50;5093278;28;19991;-72
2023/06/30 03:10:17;;;;;;;;;;;;;;;26.55;88.42;97383.16;5093169;28;19924;-71
2023/06/30 03:12:43;;;;;;;;;;;;;;;26.56;88.19;97381.97;5083946;28;19931;-72
2023/06/30 03:15:11;;;;;;;;;;;;;;;26.53;88.15;97386.25;5083613;28;19980;-72
2023/06/30 03:17:37;;;;;;;;;;;;;;;26.54;88.74;97382.34;5083685;28;19928;-72
2023/06/30 03:20:10;;;;;;;;;;;;;;;26.55;89.48;97388.63;5093076;28;20004;-72
2023/06/30 03:22:36;;;;;;;;;;;;;;;26.55;89.46;97392.16;5092895;28;19924;-72
2023/06/30 03:25:04;;;;;;;;;;;;;;;26.54;90.36;97395.25;5092940;28;19924;-72
2023/06/30 03:27:31;;;;;;;;;;;;;;;26.49;92.31;97399.13;5093135;28;19931;-72
2023/06/30 03:29:57;;;;;;;;;;;;;;;26.56;92.77;97404.66;5091943;28;19920;-72
2023/06/30 03:32:23;;;;;;;;;;;;;;;26.54;93.71;97409.75;5092992;28;19988;-72
2023/06/30 03:34:51;;;;;;;;;;;;;;;26.49;93.98;97401.09;5092844;28;19951;-72
2023/06/30 03:37:17;;;;;;;;;;;;;;;26.51;94.42;97401.50;5092959;28;19925;-72
2023/06/30 03:39:44;;;;;;;;;;;;;;;26.42;97.18;97401.81;5092829;28;19931;-72
2023/06/30 03:42:12;;;;;;;;;;;;;;;26.41;98.12;97408.44;5092757;28;20366;-72
2023/06/30 03:44:38;;;;;;;;;;;;;;;26.43;99.38;97414.31;5092773;28;20036;-72
2023/06/30 03:47:05;;;;;;;;;;;;;;;26.48;100.00;97405.00;5092736;28;19986;-72
2023/06/30 03:49:31;;;;;;;;;;;;;;;26.48;99.92;97402.25;5092534;28;19983;-72
2023/06/30 03:51:58;;;;;;;;;;;;;;;26.47;100.00;97406.94;5092618;28;19966;-72
2023/06/30 03:54:24;;;;;;;;;;;;;;;26.48;100.00;97396.78;5092607;28;19924;-72
2023/06/30 03:56:50;;;;;;;;;;;;;;;26.46;100.00;97399.88;5092434;28;19959;-72
2023/06/30 03:59:18;;;;;;;;;;;;;;;26.48;100.00;97397.56;5092512;28;19937;-72
2023/06/30 04:01:44;;;;;;;;;;;;;;;26.48;100.00;97408.53;5084331;28;19952;-72
2023/06/30 04:04:11;;;;;;;;;;;;;;;26.41;100.00;97402.97;5092356;28;19924;-72
2023/06/30 04:06:37;;;;;;;;;;;;;;;26.36;100.00;97406.06;5092289;28;20452;-72
2023/06/30 04:09:04;;;;;;;;;;;;;;;26.26;100.00;97406.75;5084938;28;19932;-72
2023/06/30 04:11:31;;;;;;;;;;;;;;;26.33;100.00;97417.00;5090511;28;20574;-72
2023/06/30 04:13:59;;;;;;;;;;;;;;;26.32;100.00;97412.66;5092070;28;19940;-72
2023/06/30 04:16:26;;;;;;;;;;;;;;;25.95;100.00;97412.66;5092067;28;20317;-71
2023/06/30 04:18:54;;;;;;;;;;;;;;;25.68;100.00;97410.06;5091911;28;19975;-71
2023/06/30 04:21:21;;;;;;;;;;;;;;;25.46;100.00;97407.41;5091613;28;19967;-71
2023/06/30 04:23:47;;;;;;;;;;;;;;;25.28;100.00;97403.66;5091682;28;19925;-71
2023/06/30 04:26:16;;;;;;;;;;;;;;;25.56;100.00;97404.03;5091775;28;20451;-71
2023/06/30 04:28:43;;;;;;;;;;;;;;;25.33;100.00;97403.31;5091954;28;19957;-71
2023/06/30 04:31:09;;;;;;;;;;;;;;;25.38;100.00;97411.97;5092298;28;19929;-71
2023/06/30 04:33:37;;;;;;;;;;;;;;;25.51;100.00;97399.69;5091546;28;19978;-71
2023/06/30 04:36:07;;;;;;;;;;;;;;;24.80;100.00;97413.47;5091693;28;19951;-71
2023/06/30 04:38:33;;;;;;;;;;;;;;;24.85;100.00;97399.56;5091653;28;19924;-72
2023/06/30 04:40:59;;;;;;;;;;;;;;;24.80;100.00;97402.56;5091300;28;19920;-72
2023/06/30 04:43:26;;;;;;;;;;;;;;;24.90;100.00;97407.41;5082047;28;19929;-72
2023/06/30 04:45:52;;;;;;;;;;;;;;;25.38;100.00;97414.72;5091407;28;19959;-72
2023/06/30 04:48:19;;;;;;;;;;;;;;;25.39;100.00;97413.56;5091116;28;19925;-70
2023/06/30 04:50:46;;;;;;;;;;;;;;;25.05;100.00;97412.72;5083168;28;20376;-71
2023/06/30 04:53:13;;;;;;;;;;;;;;;24.94;100.00;97405.53;5091037;28;19924;-71
2023/06/30 04:55:39;;;;;;;;;;;;;;;25.34;100.00;97400.22;5091017;28;19996;-71
2023/06/30 04:58:05;;;;;;;;;;;;;;;25.52;100.00;97408.69;5091236;28;20018;-72
2023/06/30 05:00:32;;;;;;;;;;;;;;;25.67;100.00;97408.47;5081624;28;19991;-72
2023/06/30 05:02:58;;;;;;;;;;;;;;;25.50;100.00;97409.03;5084697;28;19940;-72
2023/06/30 05:05:25;;;;;;;;;;;;;;;25.43;100.00;97405.41;5088460;28;19991;-72
2023/06/30 05:07:52;;;;;;;;;;;;;;;25.50;100.00;97403.56;5090978;28;19951;-72
2023/06/30 05:10:19;;;;;;;;;;;;;;;25.61;100.00;97411.91;5081538;28;20196;-72
2023/06/30 05:12:48;;;;;;;;;;;;;;;25.75;100.00;97414.78;5082943;28;19946;-71
2023/06/30 05:15:14;;;;;;;;;;;;;;;25.75;100.00;97409.31;5090952;28;19924;-71
2023/06/30 05:17:41;;;;;;;;;;;;;;;25.61;100.00;97401.75;5090929;28;19959;-71
2023/06/30 05:20:08;;;;;;;;;;;;;;;25.45;100.00;97409.34;5091356;28;20309;-71
2023/06/30 05:22:36;;;;;;;;;;;;;;;25.47;100.00;97403.50;5090926;28;20524;-72
2023/06/30 05:25:04;;;;;;;;;;;;;;;25.60;100.00;97411.13;5091419;28;19932;-71
2023/06/30 05:27:31;;;;;;;;;;;;;;;25.52;100.00;97420.41;5090964;28;19947;-71
2023/06/30 05:29:57;;;;;;;;;;;;;;;24.75;100.00;97411.88;5091317;28;19924;-71
2023/06/30 05:32:23;;;;;;;;;;;;;;;24.30;100.00;97411.88;5080994;28;19948;-71
2023/06/30 05:34:50;;;;;;;;;;;;;;;24.20;100.00;97416.03;5085051;28;20023;-71
2023/06/30 05:37:16;;;;;;;;;;;;;;;24.26;100.00;97417.31;5086943;28;19924;-72
2023/06/30 05:39:43;;;;;;;;;;;;;;;24.31;100.00;97424.38;5090624;28;19925;-72
2023/06/30 05:42:10;;;;;;;;;;;;;;;24.36;100.00;97422.13;5090694;28;19996;-71
2023/06/30 05:44:37;;;;;;;;;;;;;;;24.62;100.00;97411.28;5090787;28;20000;-71
2023/06/30 05:47:03;;;;;;;;;;;;;;;25.07;100.00;97406.88;5090791;28;19932;-71
2023/06/30 05:49:30;;;;;;;;;;;;;;;25.22;100.00;97411.41;5090747;28;19924;-71
2023/06/30 05:51:56;;;;;;;;;;;;;;;25.25;100.00;97413.38;5090251;28;19948;-72
2023/06/30 05:54:23;;;;;;;;;;;;;;;25.00;100.00;97407.59;5090175;28;19924;-72
2023/06/30 05:56:49;;;;;;;;;;;;;;;24.73;100.00;97404.03;5090630;28;19959;-72
2023/06/30 05:59:17;;;;;;;;;;;;;;;24.65;100.00;97401.56;5090570;28;19992;-72
2023/06/30 06:01:43;;;;;;;;;;;;;;;24.53;100.00;97405.28;5090538;28;19925;-72
2023/06/30 06:04:09;;;;;;;;;;;;;;;24.71;100.00;97409.06;5090578;28;19932;-72
2023/06/30 06:06:36;;;;;;;;;;;;;;;24.42;100.00;97403.50;5090490;28;19959;-72
2023/06/30 06:09:02;;;;;;;;;;;;;;;23.90;100.00;97409.59;5083445;28;19984;-70
2023/06/30 06:11:29;;;;;;;;;;;;;;;23.97;100.00;97410.53;5088420;28;19929;-71
2023/06/30 06:13:55;;;;;;;;;;;;;;;24.08;100.00;97408.75;5090372;28;19966;-71
2023/06/30 06:16:23;;;;;;;;;;;;;;;24.09;100.00;97399.44;5090386;28;19925;-71
2023/06/30 06:18:50;;;;;;;;;;;;;;;24.05;100.00;97411.41;5090289;28;19960;-71
2023/06/30 06:21:17;;;;;;;;;;;;;;;24.08;100.00;97405.25;5089246;28;19936;-71
2023/06/30 06:23:43;;;;;;;;;;;;;;;23.71;100.00;97402.22;5097415;28;19964;-71
2023/06/30 06:26:10;;;;;;;;;;;;;;;23.37;100.00;97408.50;5090141;28;19970;-71
2023/06/30 06:28:36;;;;;;;;;;;;;;;23.11;100.00;97395.53;5080618;28;19931;-71
2023/06/30 06:31:03;;;;;;;;;;;;;;;23.29;100.00;97399.41;5090199;28;19967;-71
2023/06/30 06:33:31;;;;;;;;;;;;;;;23.17;100.00;97399.56;5080403;28;19925;-71
2023/06/30 06:35:57;;;;;;;;;;;;;;;22.97;100.00;97401.44;5090015;28;19992;-72
2023/06/30 06:38:24;;;;;;;;;;;;;;;22.80;100.00;97398.34;5080362;28;19931;-71
2023/06/30 06:40:50;;;;;;;;;;;;;;;22.82;100.00;97409.66;5084504;28;19932;-70
2023/06/30 06:43:16;;;;;;;;;;;;;;;22.90;100.00;97411.41;5098411;28;20012;-72
2023/06/30 06:45:43;;;;;;;;;;;;;;;22.80;100.00;97415.47;5089777;28;19988;-72
2023/06/30 06:48:18;;;;;;;;;;;;;;;22.94;100.00;97423.94;5090013;28;19960;-72
2023/06/30 06:50:45;;;;;;;;;;;;;;;22.57;100.00;97417.22;5089992;28;19924;-72
2023/06/30 06:53:16;;;;;;;;;;;;;;;23.82;100.00;97432.44;5090062;28;19999;-72
2023/06/30 06:55:42;;;;;;;;;;;;;;;23.69;100.00;97420.88;5080170;28;19924;-72
2023/06/30 06:58:08;;;;;;;;;;;;;;;23.15;100.00;97431.78;5090011;28;20030;-70
2023/06/30 07:00:35;;;;;;;;;;;;;;;22.51;100.00;97430.31;5089790;28;19932;-71
2023/06/30 07:03:01;;;;;;;;;;;;;;;22.25;100.00;97426.53;5089896;28;19925;-71
2023/06/30 07:05:28;;;;;;;;;;;;;;;22.38;100.00;97422.56;5093215;28;19924;-71
2023/06/30 07:07:55;;;;;;;;;;;;;;;22.99;100.00;97436.50;5093431;28;19924;-71
2023/06/30 07:10:22;;;;;;;;;;;;;;;23.36;100.00;97435.00;5093109;28;20030;-71
2023/06/30 07:12:48;;;;;;;;;;;;;;;23.30;100.00;97428.25;5087884;28;20008;-71
2023/06/30 07:15:14;;;;;;;;;;;;;;;22.90;100.00;97433.19;5088943;28;19925;-71
2023/06/30 07:17:41;;;;;;;;;;;;;;;22.02;100.00;97442.63;5083405;28;20402;-72
2023/06/30 07:20:07;;;;;;;;;;;;;;;22.08;100.00;97437.72;5093029;28;20027;-71
2023/06/30 07:22:34;;;;;;;;;;;;;;;22.38;100.00;97428.81;5093079;28;19970;-71
2023/06/30 07:25:02;;;;;;;;;;;;;;;22.70;100.00;97423.38;5093096;28;19925;-71
2023/06/30 07:27:28;;;;;;;;;;;;;;;22.80;100.00;97425.56;5083629;28;19995;-71
2023/06/30 07:29:55;;;;;;;;;;;;;;;23.59;100.00;97410.56;5083450;28;19924;-72
2023/06/30 07:32:21;;;;;;;;;;;;;;;23.90;100.00;97404.13;5092680;28;19924;-72
2023/06/30 07:34:47;;;;;;;;;;;;;;;23.60;100.00;97414.88;5087574;28;20011;-72
2023/06/30 07:37:14;;;;;;;;;;;;;;;22.81;100.00;97419.00;5088539;28;19963;-72
2023/06/30 07:39:40;;;;;;;;;;;;;;;22.19;100.00;97420.53;5092824;28;19939;-72
2023/06/30 07:42:08;;;;;;;;;;;;;;;22.32;100.00;97424.75;5092677;28;19924;-72
2023/06/30 07:44:34;;;;;;;;;;;;;;;22.28;100.00;97420.41;5092574;28;19924;-72
2023/06/30 07:47:01;;;;;;;;;;;;;;;22.47;100.00;97423.97;5092631;28;19989;-72
2023/06/30 07:49:27;;;;;;;;;;;;;;;23.13;100.00;97434.09;5092649;28;19932;-72
2023/06/30 07:51:53;;;;;;;;;;;;;;;23.44;100.00;97427.78;5092438;28;20322;-71
2023/06/30 07:54:20;;;;;;;;;;;;;;;23.68;100.00;97422.03;5092315;28;19963;-72
2023/06/30 07:56:47;;;;;;;;;;;;;;;24.11;100.00;97420.91;5092582;28;19924;-72
2023/06/30 07:59:14;;;;;;;;;;;;;;;23.69;100.00;97425.56;5092385;28;20011;-72
2023/06/30 08:01:41;;;;;;;;;;;;;;;22.71;100.00;97419.53;5082751;28;19924;-72
2023/06/30 08:04:07;;;;;;;;;;;;;;;22.38;100.00;97428.81;5092290;28;19932;-72
2023/06/30 08:06:33;;;;;;;;;;;;;;;22.20;100.00;97419.41;5092429;28;19956;-72
2023/06/30 08:09:00;;;;;;;;;;;;;;;22.32;100.00;97419.31;5092373;28;19936;-72
2023/06/30 08:11:26;;;;;;;;;;;;;;;22.70;100.00;97412.50;5092939;28;20074;-72
2023/06/30 08:13:53;;;;;;;;;;;;;;;23.15;100.00;97406.50;5093056;28;19924;-71
2023/06/30 08:16:20;;;;;;;;;;;;;;;23.34;100.00;97415.47;5092360;28;19976;-73
2023/06/30 08:18:47;;;;;;;;;;;;;;;23.22;100.00;97412.09;5084787;28;19974;-72
2023/06/30 08:21:13;;;;;;;;;;;;;;;22.87;100.00;97414.84;5091970;28;19924;-72
2023/06/30 08:23:39;;;;;;;;;;;;;;;23.19;100.00;97423.69;5091873;28;19995;-72
2023/06/30 08:26:06;;;;;;;;;;;;;;;23.53;100.00;97417.44;5091870;28;19928;-72
2023/06/30 08:28:32;;;;;;;;;;;;;;;24.26;100.00;97406.41;5091801;28;19931;-71
2023/06/30 08:30:59;;;;;;;;;;;;;;;24.36;100.00;97407.69;5091721;28;19960;-72
2023/06/30 08:33:30;;;;;;;;;;;;;;;23.80;100.00;97419.16;5091846;28;19987;-72
2023/06/30 08:35:56;;;;;;;;;;;;;;;23.62;100.00;97420.75;5082145;28;19924;-72
2023/06/30 08:38:23;;;;;;;;;;;;;;;23.69;100.00;97420.09;5082035;28;19920;-72
2023/06/30 08:40:49;;;;;;;;;;;;;;;23.80;100.00;97419.16;5091797;28;19924;-72
2023/06/30 08:43:16;;;;;;;;;;;;;;;23.69;100.00;97422.81;5091261;28;19936;-71
2023/06/30 08:45:43;;;;;;;;;;;;;;;23.58;100.00;97420.66;5091571;28;19947;-71
2023/06/30 08:48:10;;;;;;;;;;;;;;;24.12;100.00;97425.22;5091391;28;19925;-71
2023/06/30 08:50:38;;;;;;;;;;;;;;;24.36;100.00;97429.53;5091555;28;20571;-72
2023/06/30 08:53:05;;;;;;;;;;;;;;;24.27;100.00;97435.25;5091286;28;19971;-71
2023/06/30 08:55:31;;;;;;;;;;;;;;;23.99;100.00;97432.75;5091133;28;19928;-71
2023/06/30 08:57:58;;;;;;;;;;;;;;;24.10;100.00;97435.69;5091264;28;19967;-71
2023/06/30 09:00:25;;;;;;;;;;;;;;;24.50;100.00;97416.94;5091183;28;19988;-73
2023/06/30 09:02:53;;;;;;;;;;;;;;;24.79;100.00;97423.59;5091080;28;19955;-72
2023/06/30 09:05:19;;;;;;;;;;;;;;;24.94;100.00;97425.44;5091482;28;19943;-73
2023/06/30 09:07:53;;;;;;;;;;;;;;;25.09;100.00;97420.97;5083037;28;19925;-73
2023/06/30 09:10:21;;;;;;;;;;;;;;;25.14;100.00;97418.69;5091264;28;19963;-72
2023/06/30 09:12:48;;;;;;;;;;;;;;;25.13;100.00;97427.25;5083334;28;20009;-72
2023/06/30 09:15:17;;;;;;;;;;;;;;;24.76;100.00;97412.66;5090846;28;19924;-71
2023/06/30 09:17:44;;;;;;;;;;;;;;;24.62;100.00;97411.28;5091666;28;19971;-72
2023/06/30 09:20:12;;;;;;;;;;;;;;;24.61;100.00;97408.91;5089534;28;19947;-72
2023/06/30 09:22:40;;;;;;;;;;;;;;;24.73;100.00;97409.47;5090772;28;19932;-72
2023/06/30 09:25:08;;;;;;;;;;;;;;;24.94;100.00;97408.28;5091028;28;19924;-72
2023/06/30 09:27:35;;;;;;;;;;;;;;;24.97;100.00;97402.06;5091076;28;19924;-74
2023/06/30 09:30:02;;;;;;;;;;;;;;;24.90;100.00;97401.97;5091097;28;19936;-72
2023/06/30 09:32:30;;;;;;;;;;;;;;;25.04;100.00;97402.16;5090799;28;19924;-73
2023/06/30 09:34:56;;;;;;;;;;;;;;;25.14;100.00;97413.22;5084276;28;20002;-73
2023/06/30 09:37:22;;;;;;;;;;;;;;;25.25;100.00;97419.63;5087643;28;19924;-73
2023/06/30 09:39:50;;;;;;;;;;;;;;;25.25;100.00;97427.06;5090721;28;19955;-71
2023/06/30 09:42:19;;;;;;;;;;;;;;;25.32;100.00;97420.88;5081129;28;19984;-71
2023/06/30 09:44:45;;;;;;;;;;;;;;;25.33;100.00;97417.00;5082276;28;19980;-72
2023/06/30 09:47:12;;;;;;;;;;;;;;;25.42;100.00;97414.75;5090384;28;19967;-72
2023/06/30 09:49:39;;;;;;;;;;;;;;;25.18;100.00;97424.22;5090237;28;19924;-71
2023/06/30 09:52:06;;;;;;;;;;;;;;;25.12;100.00;97415.56;5090594;28;19948;-71
2023/06/30 09:54:33;;;;;;;;;;;;;;;24.60;100.00;97419.03;5090232;28;19931;-71
2023/06/30 09:56:59;;;;;;;;;;;;;;;24.48;100.00;97430.13;5083587;28;19981;-71
2023/06/30 09:59:27;;;;;;;;;;;;;;;24.38;100.00;97425.31;5087657;28;19963;-71
2023/06/30 10:01:54;;;;;;;;;;;;;;;23.81;100.00;97425.41;5090388;28;19955;-71
2023/06/30 10:04:22;;;;;;;;;;;;;;;23.96;100.00;97419.06;5090183;28;19947;-71
2023/06/30 10:06:50;;;;;;;;;;;;;;;23.70;100.00;97418.97;5090200;28;19924;-71
2023/06/30 10:09:17;;;;;;;;;;;;;;;23.76;100.00;97421.03;5090332;28;19960;-71
2023/06/30 10:11:44;;;;;;;;;;;;;;;23.67;100.00;97420.47;5090446;28;20014;-71
2023/06/30 10:14:11;;;;;;;;;;;;;;;24.04;100.00;97418.84;5090306;28;19959;-71
2023/06/30 10:16:39;;;;;;;;;;;;;;;24.47;100.00;97404.00;5090128;28;19928;-71
2023/06/30 10:19:06;;;;;;;;;;;;;;;24.52;100.00;97403.69;5090430;28;19925;-71
2023/06/30 10:21:33;;;;;;;;;;;;;;;23.98;100.00;97423.03;5090140;28;19950;-72
2023/06/30 10:24:01;;;;;;;;;;;;;;;23.98;100.00;97416.78;5090199;28;20254;-71
2023/06/30 10:26:27;;;;;;;;;;;;;;;24.44;100.00;97407.47;5090074;28;19925;-71
2023/06/30 10:28:54;;;;;;;;;;;;;;;24.58;100.00;97406.91;5090332;28;19995;-71
2023/06/30 10:31:21;;;;;;;;;;;;;;;24.64;100.00;97408.97;5089973;28;20348;-71
2023/06/30 10:33:49;;;;;;;;;;;;;;;24.95;100.00;97405.16;5090174;28;19952;-71
2023/06/30 10:36:17;;;;;;;;;;;;;;;25.19;100.00;97398.47;5089974;28;19967;-72
2023/06/30 10:38:43;;;;;;;;;;;;;;;24.94;100.00;97397.34;5090764;28;19931;-72
2023/06/30 10:41:14;;;;;;;;;;;;;;;24.94;100.00;97398.13;5093849;28;19925;-72
2023/06/30 10:43:59;;;;;;;;;;;;;;;25.23;100.00;97400.09;5084158;28;19928;-72
2023/06/30 10:46:40;;;;;;;;;;;;;;;25.38;100.00;97392.84;5093618;28;19924;-72
2023/06/30 10:49:08;;;;;;;;;;;;;;;25.46;100.00;97391.00;5093633;28;19924;-72
2023/06/30 10:51:35;;;;;;;;;;;;;;;25.47;100.00;97390.59;5093587;28;19931;-72
2023/06/30 10:54:01;;;;;;;;;;;;;;;25.48;100.00;97394.94;5084032;28;20444;-73
2023/06/30 10:56:28;;;;;;;;;;;;;;;25.51;100.00;97393.41;5084127;28;20346;-72
2023/06/30 10:58:56;;;;;;;;;;;;;;;25.48;100.00;97386.72;5087428;28;19924;-72
2023/06/30 11:01:22;;;;;;;;;;;;;;;25.61;100.00;97382.63;5090372;28;19929;-72
2023/06/30 11:04:07;;;;;;;;;;;;;;;25.68;100.00;97379.19;5094441;28;19959;-72
2023/06/30 11:06:35;;;;;;;;;;;;;;;25.58;100.00;97377.09;5094496;28;19935;-72
2023/06/30 11:09:03;;;;;;;;;;;;;;;25.56;100.00;97382.94;5094107;28;19928;-74
2023/06/30 11:11:29;;;;;;;;;;;;;;;25.60;100.00;97388.44;5094375;28;19925;-72
2023/06/30 11:14:04;;;;;;;;;;;;;;;25.66;100.00;97384.22;5093340;28;19924;-73
2023/06/30 11:16:31;;;;;;;;;;;;;;;25.58;100.00;97377.91;5093468;28;19924;-72
2023/06/30 11:18:59;;;;;;;;;;;;;;;25.62;100.00;97378.72;5087441;28;19924;-71
2023/06/30 11:21:25;;;;;;;;;;;;;;;25.70;100.00;97363.16;5090519;28;19946;-72
2023/06/30 11:23:53;;;;;;;;;;;;;;;25.81;100.00;97366.78;5084084;28;19979;-72
2023/06/30 11:26:19;;;;;;;;;;;;;;;25.71;100.00;97362.81;5093294;28;19925;-71
2023/06/30 11:28:48;;;;;;;;;;;;;;;25.68;100.00;97352.63;5085148;28;19921;-71
2023/06/30 11:31:15;;;;;;;;;;;;;;;25.25;100.00;97366.94;5093315;28;19991;-73
2023/06/30 11:33:42;;;;;;;;;;;;;;;25.34;100.00;97363.91;5093095;28;20405;-72
2023/06/30 11:36:12;;;;;;;;;;;;;;;25.11;100.00;97358.53;5085194;28;19956;-72
2023/06/30 11:38:40;;;;;;;;;;;;;;;24.98;100.00;97355.25;5092124;28;19924;-72
2023/06/30 11:41:08;;;;;;;;;;;;;;;25.14;100.00;97357.78;5083637;28;19975;-72
2023/06/30 11:43:34;;;;;;;;;;;;;;;24.91;100.00;97346.19;5093031;28;19935;-72
2023/06/30 11:46:01;;;;;;;;;;;;;;;25.21;100.00;97336.03;5092701;28;19966;-72
2023/06/30 11:48:28;;;;;;;;;;;;;;;25.07;100.00;97330.38;5083096;28;19925;-72
2023/06/30 11:50:54;;;;;;;;;;;;;;;24.88;100.00;97338.72;5091594;28;19924;-72
2023/06/30 11:53:21;;;;;;;;;;;;;;;25.13;100.00;97329.69;5082884;28;19925;-72
2023/06/30 11:55:50;;;;;;;;;;;;;;;25.47;100.00;97333.19;5083197;28;19948;-72
2023/06/30 11:58:19;;;;;;;;;;;;;;;25.55;100.00;97334.91;5092418;28;19986;-71
2023/06/30 12:00:46;;;;;;;;;;;;;;;25.71;100.00;97335.47;5084412;28;20006;-72
2023/06/30 12:03:15;;;;;;;;;;;;;;;25.77;100.00;97338.63;5092363;28;19966;-72
2023/06/30 12:05:42;;;;;;;;;;;;;;;25.80;100.00;97346.09;5082501;28;19989;-72
2023/06/30 12:08:08;;;;;;;;;;;;;;;25.85;100.00;97350.41;5092183;28;19924;-72
2023/06/30 12:10:37;;;;;;;;;;;;;;;25.76;100.00;97356.19;5092059;28;19924;-72
2023/06/30 12:13:06;;;;;;;;;;;;;;;25.76;100.00;97367.13;5092234;28;19924;-72
2023/06/30 12:15:33;;;;;;;;;;;;;;;25.82;100.00;97356.66;5092369;28;19980;-72
2023/06/30 12:18:04;;;;;;;;;;;;;;;25.81;100.00;97357.81;5092272;28;19924;-71
2023/06/30 12:20:31;;;;;;;;;;;;;;;25.64;100.00;97359.19;5091935;28;19925;-71
2023/06/30 12:22:59;;;;;;;;;;;;;;;25.59;100.00;97367.75;5092216;28;19967;-72
2023/06/30 12:25:26;;;;;;;;;;;;;;;25.64;100.00;97365.47;5091842;28;19948;-71
2023/06/30 12:27:54;;;;;;;;;;;;;;;25.73;100.00;97346.81;5091901;28;19924;-72
2023/06/30 12:30:21;;;;;;;;;;;;;;;25.75;100.00;97346.41;5082380;28;19924;-72
2023/06/30 12:32:55;;;;;;;;;;;;;;;25.80;100.00;97342.56;5091755;28;19925;-72
2023/06/30 12:35:28;;;;;;;;;;;;;;;25.81;100.00;97346.88;5091703;28;19924;-72
2023/06/30 12:37:54;;;;;;;;;;;;;;;25.75;100.00;97346.41;5091697;28;19970;-73
2023/06/30 12:40:21;;;;;;;;;;;;;;;25.90;100.00;97347.38;5091711;28;19988;-72